Time;durP1;ratioP1;P1;durP2;ratioP2;P2;SDS_P1;SDS_P2;PMS_P1;PMS_P2;Temp;Humidity;BMP_temperature;BMP_pressure;BME280_temperature;BME280_humidity;BME280_pressure;Samples;Min_cycle;Max_cycle;Signal;HPM_P1;HPM_P2
2023/07/01 00:01:04;;;;;;;5.77;5.00;;;22.30;99.90;;;;;;5069931;28;20438;-73
2023/07/01 00:03:30;;;;;;;6.05;5.28;;;22.30;99.90;;;;;;5077723;28;21361;-72
2023/07/01 00:05:58;;;;;;;6.53;5.40;;;22.20;99.90;;;;;;5066102;28;21019;-73
2023/07/01 00:08:25;;;;;;;8.10;5.35;;;22.10;99.90;;;;;;5085832;28;20410;-72
2023/07/01 00:10:52;;;;;;;5.97;4.90;;;22.00;99.90;;;;;;5087792;28;20482;-72
2023/07/01 00:13:19;;;;;;;6.88;5.22;;;22.00;99.90;;;;;;5063176;28;20763;-72
2023/07/01 00:15:45;;;;;;;5.55;4.95;;;22.00;99.90;;;;;;5070596;28;20423;-73
2023/07/01 00:18:11;;;;;;;5.95;4.90;;;22.00;99.90;;;;;;5077797;28;20427;-73
2023/07/01 00:20:37;;;;;;;5.68;5.07;;;22.00;99.90;;;;;;5090640;27;20434;-73
2023/07/01 00:23:04;;;;;;;6.55;5.35;;;22.00;99.90;;;;;;5079693;28;20401;-73
2023/07/01 00:25:31;;;;;;;6.88;5.10;;;21.90;99.90;;;;;;5064842;28;20419;-73
2023/07/01 00:27:57;;;;;;;6.18;4.80;;;21.90;99.90;;;;;;5074725;28;20419;-73
2023/07/01 00:30:23;;;;;;;6.35;5.10;;;22.00;99.90;;;;;;5070417;28;20444;-74
2023/07/01 00:32:49;;;;;;;5.47;4.82;;;22.00;99.90;;;;;;5069142;28;20533;-72
2023/07/01 00:35:16;;;;;;;5.70;5.00;;;22.00;99.90;;;;;;5059184;28;20450;-74
2023/07/01 00:37:42;;;;;;;6.93;5.18;;;22.00;99.90;;;;;;5070570;28;20485;-73
2023/07/01 00:40:09;;;;;;;6.13;4.97;;;22.00;99.90;;;;;;5071554;28;20442;-73
2023/07/01 00:42:35;;;;;;;7.60;4.50;;;22.00;99.90;;;;;;5098009;27;20412;-73
2023/07/01 00:45:01;;;;;;;6.47;5.10;;;22.00;99.90;;;;;;5066845;28;20415;-74
2023/07/01 00:47:28;;;;;;;5.75;5.00;;;22.00;99.90;;;;;;5062008;28;20602;-73
2023/07/01 00:49:56;;;;;;;8.27;5.00;;;22.00;99.90;;;;;;5067368;28;20480;-74
2023/07/01 00:52:22;;;;;;;5.80;4.75;;;22.00;99.90;;;;;;5066373;28;20960;-74
2023/07/01 00:54:49;;;;;;;5.63;4.93;;;22.00;99.90;;;;;;5066736;28;20450;-73
2023/07/01 00:57:15;;;;;;;5.57;4.93;;;22.00;99.90;;;;;;5081614;28;20477;-73
2023/07/01 00:59:41;;;;;;;6.68;4.82;;;22.00;99.90;;;;;;5072393;28;20434;-74
2023/07/01 01:02:33;;;;;;;5.97;4.95;;;22.00;99.90;;;;;;5071980;28;20445;-74
2023/07/01 01:05:17;;;;;;;6.13;5.00;;;22.00;99.90;;;;;;5072242;28;20421;-73
2023/07/01 01:07:46;;;;;;;7.03;5.15;;;21.90;99.90;;;;;;5066351;28;20518;-73
2023/07/01 01:10:20;;;;;;;5.60;4.80;;;21.90;99.90;;;;;;5054746;28;20580;-73
2023/07/01 01:12:48;;;;;;;6.15;5.10;;;21.80;99.90;;;;;;5065507;28;20426;-73
2023/07/01 01:15:15;;;;;;;7.40;4.90;;;21.80;99.90;;;;;;5078048;28;20431;-73
2023/07/01 01:17:44;;;;;;;5.80;5.28;;;21.70;99.90;;;;;;5068866;28;20506;-73
2023/07/01 01:20:20;;;;;;;6.55;4.95;;;21.70;99.90;;;;;;5076982;28;20425;-73
2023/07/01 01:23:07;;;;;;;6.07;5.00;;;21.80;99.90;;;;;;5070193;28;20472;-73
2023/07/01 01:25:47;;;;;;;6.07;4.70;;;21.80;99.90;;;;;;5077162;28;20416;-73
2023/07/01 01:28:14;;;;;;;5.85;5.13;;;21.80;99.90;;;;;;5100419;27;20865;-73
2023/07/01 01:30:40;;;;;;;5.38;4.88;;;21.80;99.90;;;;;;5069052;28;20486;-73
2023/07/01 01:33:06;;;;;;;7.05;5.10;;;21.80;99.90;;;;;;5101027;27;20417;-73
2023/07/01 01:35:33;;;;;;;5.30;4.80;;;21.70;99.90;;;;;;5083050;28;21035;-73
2023/07/01 01:38:21;;;;;;;5.43;4.90;;;21.70;99.90;;;;;;5075136;28;20927;-73
2023/07/01 01:41:13;;;;;;;5.63;5.00;;;21.60;99.90;;;;;;5097550;27;20929;-73
2023/07/01 01:43:58;;;;;;;5.45;4.80;;;21.60;99.90;;;;;;5071709;28;20438;-73
2023/07/01 01:46:26;;;;;;;6.40;5.20;;;21.60;99.90;;;;;;5103500;27;20472;-74
2023/07/01 01:48:59;;;;;;;5.78;4.90;;;21.50;99.90;;;;;;5092522;28;20458;-74
2023/07/01 01:51:27;;;;;;;5.97;5.10;;;21.40;99.90;;;;;;5068096;28;20411;-73
2023/07/01 01:53:55;;;;;;;6.40;5.00;;;21.30;99.90;;;;;;5070254;28;20406;-73
2023/07/01 01:56:23;;;;;;;6.22;5.03;;;21.30;99.90;;;;;;5109001;27;20839;-73
2023/07/01 01:58:49;;;;;;;6.65;5.22;;;21.20;99.90;;;;;;5057812;28;20422;-75
2023/07/01 02:01:15;;;;;;;6.38;5.30;;;21.20;99.90;;;;;;5066796;28;20412;-74
2023/07/01 02:03:47;;;;;;;6.40;4.95;;;21.20;99.90;;;;;;5070060;28;20422;-74
2023/07/01 02:06:13;;;;;;;6.93;5.20;;;21.20;99.90;;;;;;5072480;28;20420;-74
2023/07/01 02:08:40;;;;;;;6.57;4.80;;;21.20;99.90;;;;;;5069513;28;20429;-74
2023/07/01 02:11:06;;;;;;;6.18;5.05;;;21.30;99.90;;;;;;5071007;28;20500;-74
2023/07/01 02:13:33;;;;;;;5.45;4.95;;;21.30;99.90;;;;;;5065962;28;20508;-74
2023/07/01 02:16:00;;;;;;;6.80;5.00;;;21.30;99.90;;;;;;5049813;28;20430;-74
2023/07/01 02:18:26;;;;;;;7.45;5.05;;;21.30;99.90;;;;;;5067426;28;20550;-74
2023/07/01 02:20:52;;;;;;;6.00;5.05;;;21.30;99.90;;;;;;5067140;28;20497;-74
2023/07/01 02:23:18;;;;;;;7.20;4.88;;;21.30;99.90;;;;;;5053537;28;20433;-74
2023/07/01 02:25:45;;;;;;;8.60;5.47;;;21.20;99.90;;;;;;5059396;28;20406;-74
2023/07/01 02:28:13;;;;;;;7.20;5.07;;;21.20;99.90;;;;;;5069189;28;20427;-74
2023/07/01 02:30:40;;;;;;;7.78;5.07;;;21.20;99.90;;;;;;5092062;28;20757;-75
2023/07/01 02:33:06;;;;;;;6.80;4.97;;;21.20;99.90;;;;;;5067661;28;21088;-73
2023/07/01 02:35:32;;;;;;;6.18;5.40;;;21.20;99.90;;;;;;5059562;28;20758;-73
2023/07/01 02:37:58;;;;;;;5.95;5.10;;;21.20;99.90;;;;;;5073947;28;21157;-73
2023/07/01 02:40:25;;;;;;;7.07;4.90;;;21.20;99.90;;;;;;5073998;28;20421;-73
2023/07/01 02:42:51;;;;;;;6.10;5.27;;;21.10;99.90;;;;;;5089042;28;20406;-72
2023/07/01 02:45:17;;;;;;;6.05;4.88;;;21.10;99.90;;;;;;5072173;28;20431;-72
2023/07/01 02:47:43;;;;;;;5.90;4.68;;;21.00;99.90;;;;;;5068857;28;20423;-72
2023/07/01 02:50:10;;;;;;;5.65;4.95;;;21.10;99.90;;;;;;5077319;28;20480;-72
2023/07/01 02:52:36;;;;;;;6.03;5.10;;;21.20;99.90;;;;;;5072447;28;21406;-72
2023/07/01 02:55:02;;;;;;;6.78;5.20;;;21.20;99.90;;;;;;5074523;28;20424;-72
2023/07/01 02:57:29;;;;;;;5.80;5.20;;;21.20;99.90;;;;;;5071102;28;20422;-72
2023/07/01 02:59:56;;;;;;;5.90;4.88;;;21.20;99.90;;;;;;5077777;28;20433;-72
2023/07/01 03:02:23;;;;;;;5.32;4.82;;;21.20;99.90;;;;;;5076273;28;20423;-72
2023/07/01 03:04:49;;;;;;;6.00;5.40;;;21.20;99.90;;;;;;5072701;28;20417;-72
2023/07/01 03:07:15;;;;;;;6.93;5.25;;;21.20;99.90;;;;;;5074432;28;20418;-72
2023/07/01 03:09:41;;;;;;;5.88;5.05;;;21.20;99.90;;;;;;5070321;28;20413;-72
2023/07/01 03:12:08;;;;;;;6.47;5.20;;;21.30;99.90;;;;;;5055357;28;20513;-72
2023/07/01 03:14:34;;;;;;;7.18;4.95;;;21.30;99.90;;;;;;5072893;28;20434;-72
2023/07/01 03:17:00;;;;;;;6.93;5.05;;;21.40;99.90;;;;;;5080410;28;20923;-72
2023/07/01 03:19:27;;;;;;;6.07;5.23;;;21.40;99.90;;;;;;5073173;28;20447;-72
2023/07/01 03:21:56;;;;;;;7.00;4.87;;;21.50;99.90;;;;;;5073247;28;20419;-72
2023/07/01 03:24:22;;;;;;;5.47;4.97;;;21.60;99.90;;;;;;5072894;28;20816;-72
2023/07/01 03:26:48;;;;;;;5.57;5.07;;;21.60;99.90;;;;;;5075602;28;21356;-72
2023/07/01 03:29:14;;;;;;;8.80;5.10;;;21.70;99.90;;;;;;5075028;28;20430;-72
2023/07/01 03:31:41;;;;;;;6.45;5.10;;;21.70;99.90;;;;;;5075770;28;20996;-72
2023/07/01 03:34:07;;;;;;;6.75;4.88;;;21.60;99.90;;;;;;5079965;28;20555;-72
2023/07/01 03:36:33;;;;;;;6.93;5.00;;;21.70;99.90;;;;;;5094772;27;20411;-72
2023/07/01 03:39:00;;;;;;;7.45;4.93;;;21.80;99.90;;;;;;5100817;27;20417;-72
2023/07/01 03:41:27;;;;;;;5.07;4.55;;;21.80;99.90;;;;;;5077708;28;20411;-72
2023/07/01 03:43:53;;;;;;;5.75;4.55;;;21.90;99.90;;;;;;5068339;28;21299;-73
2023/07/01 03:46:19;;;;;;;5.30;4.80;;;21.90;99.90;;;;;;5077846;28;20480;-73
2023/07/01 03:48:45;;;;;;;6.45;4.72;;;22.00;99.90;;;;;;5073772;28;20584;-72
2023/07/01 03:51:11;;;;;;;6.72;4.82;;;22.00;99.90;;;;;;5078803;28;20462;-72
2023/07/01 03:53:38;;;;;;;6.43;5.00;;;22.00;99.90;;;;;;5077868;28;20765;-72
2023/07/01 03:56:04;;;;;;;6.50;4.72;;;22.00;99.90;;;;;;5081816;28;20427;-72
2023/07/01 03:58:30;;;;;;;5.90;4.70;;;22.00;99.90;;;;;;5082286;28;20507;-72
2023/07/01 04:00:57;;;;;;;5.40;4.60;;;22.00;99.90;;;;;;5074482;28;20764;-72
2023/07/01 04:03:26;;;;;;;5.70;5.03;;;22.00;99.90;;;;;;5071795;28;20440;-72
2023/07/01 04:05:53;;;;;;;7.03;4.65;;;22.00;99.90;;;;;;5076314;28;20425;-72
2023/07/01 04:08:20;;;;;;;5.72;4.68;;;22.10;99.90;;;;;;5085697;27;20442;-72
2023/07/01 04:10:46;;;;;;;5.18;4.68;;;22.30;99.90;;;;;;5077952;28;20797;-71
2023/07/01 04:13:13;;;;;;;5.25;4.75;;;22.30;99.90;;;;;;5070598;28;20415;-71
2023/07/01 04:15:39;;;;;;;5.57;4.80;;;22.40;99.90;;;;;;5101056;27;20925;-72
2023/07/01 04:18:05;;;;;;;5.53;4.40;;;22.60;99.90;;;;;;5076818;28;20423;-71
2023/07/01 04:20:32;;;;;;;6.97;4.85;;;22.70;99.90;;;;;;5071294;28;20517;-71
2023/07/01 04:22:58;;;;;;;6.40;4.63;;;22.80;99.90;;;;;;5073522;28;20898;-72
2023/07/01 04:25:24;;;;;;;7.22;4.65;;;22.90;99.90;;;;;;5079365;28;20417;-71
2023/07/01 04:27:50;;;;;;;5.43;4.50;;;23.10;99.90;;;;;;5075211;28;20865;-72
2023/07/01 04:30:17;;;;;;;6.90;4.70;;;23.20;99.90;;;;;;5077458;28;20417;-73
2023/07/01 04:32:43;;;;;;;6.60;4.88;;;23.30;99.90;;;;;;5078076;28;20817;-73
2023/07/01 04:35:09;;;;;;;6.30;4.55;;;23.40;99.90;;;;;;5081373;28;20494;-72
2023/07/01 04:37:35;;;;;;;6.35;4.82;;;23.50;99.90;;;;;;5078645;28;20412;-72
2023/07/01 04:40:04;;;;;;;6.85;4.60;;;23.60;99.90;;;;;;5073269;28;20508;-73
2023/07/01 04:42:32;;;;;;;5.15;4.50;;;23.80;99.90;;;;;;5074962;28;20423;-73
2023/07/01 04:44:59;;;;;;;5.70;4.68;;;23.90;99.90;;;;;;5102602;27;20418;-73
2023/07/01 04:47:25;;;;;;;5.70;4.70;;;24.00;99.90;;;;;;5070107;28;20419;-73
2023/07/01 04:49:55;;;;;;;6.85;4.88;;;24.10;99.90;;;;;;5081495;28;20422;-73
2023/07/01 04:52:25;;;;;;;5.68;4.45;;;24.20;99.90;;;;;;5081438;28;20873;-73
2023/07/01 04:54:52;;;;;;;6.13;4.50;;;24.40;99.90;;;;;;5110241;27;20413;-73
2023/07/01 04:57:19;;;;;;;6.50;4.30;;;24.50;99.90;;;;;;5069061;28;20545;-73
2023/07/01 04:59:45;;;;;;;5.55;4.18;;;24.50;99.90;;;;;;5080246;28;20405;-72
2023/07/01 05:02:11;;;;;;;6.93;4.60;;;24.60;99.90;;;;;;5071716;28;20415;-72
2023/07/01 05:04:38;;;;;;;7.43;4.70;;;24.70;99.90;;;;;;5105761;27;21263;-73
2023/07/01 05:07:05;;;;;;;8.43;4.40;;;24.80;99.90;;;;;;5082675;28;20400;-73
2023/07/01 05:09:32;;;;;;;5.50;4.33;;;24.90;99.90;;;;;;5106200;27;20441;-73
2023/07/01 05:11:58;;;;;;;6.30;4.50;;;25.00;99.90;;;;;;5070194;28;20415;-73
2023/07/01 05:14:25;;;;;;;5.53;4.47;;;25.00;99.90;;;;;;5077820;28;20417;-73
2023/07/01 05:16:51;;;;;;;5.18;4.40;;;25.00;99.90;;;;;;5109413;27;20457;-73
2023/07/01 05:19:18;;;;;;;6.05;4.40;;;25.00;99.90;;;;;;5067672;28;20960;-73
2023/07/01 05:21:54;;;;;;;6.88;4.80;;;24.90;99.90;;;;;;5104234;27;20420;-73
2023/07/01 05:24:20;;;;;;;7.57;4.97;;;24.90;99.90;;;;;;5074993;28;20405;-73
2023/07/01 05:26:49;;;;;;;8.30;4.55;;;25.00;99.90;;;;;;5071427;28;20424;-73
2023/07/01 05:29:17;;;;;;;6.47;4.80;;;24.90;99.90;;;;;;5075973;28;20441;-73
2023/07/01 05:31:43;;;;;;;6.07;4.90;;;24.90;99.90;;;;;;5069490;28;20984;-73
2023/07/01 05:34:10;;;;;;;7.60;5.00;;;24.90;99.90;;;;;;5070033;28;20410;-72
2023/07/01 05:36:37;;;;;;;5.53;4.88;;;24.90;99.90;;;;;;5101914;27;20473;-72
2023/07/01 05:39:04;;;;;;;6.10;4.85;;;24.90;99.90;;;;;;5076868;28;20410;-73
2023/07/01 05:41:30;;;;;;;5.40;4.80;;;25.00;99.90;;;;;;5071402;28;20415;-73
2023/07/01 05:43:56;;;;;;;6.00;5.15;;;25.00;99.90;;;;;;5081310;28;20761;-73
2023/07/01 05:46:23;;;;;;;6.85;4.63;;;25.00;99.90;;;;;;5079722;28;20520;-74
2023/07/01 05:48:49;;;;;;;6.38;4.80;;;25.10;99.90;;;;;;5076923;28;20529;-74
2023/07/01 05:51:15;;;;;;;8.10;4.85;;;25.10;99.90;;;;;;5076358;28;20416;-73
2023/07/01 05:53:44;;;;;;;8.73;5.33;;;25.20;99.90;;;;;;5107274;27;20449;-73
2023/07/01 05:56:10;;;;;;;6.07;4.90;;;25.30;99.90;;;;;;5057519;28;20510;-73
2023/07/01 05:58:36;;;;;;;7.10;5.20;;;25.40;99.90;;;;;;5073468;28;20488;-73
2023/07/01 06:01:03;;;;;;;7.28;5.03;;;25.40;99.90;;;;;;5075846;28;20579;-73
2023/07/01 06:03:30;;;;;;;7.57;4.90;;;25.50;99.90;;;;;;5077259;28;21343;-73
2023/07/01 06:05:56;;;;;;;8.15;5.07;;;25.50;99.90;;;;;;5079112;28;20850;-73
2023/07/01 06:08:22;;;;;;;9.68;5.30;;;25.60;99.90;;;;;;5101100;27;20410;-73
2023/07/01 06:10:48;;;;;;;7.85;5.15;;;25.70;99.90;;;;;;5077459;28;20413;-73
2023/07/01 06:13:14;;;;;;;7.43;4.82;;;25.80;99.90;;;;;;5077197;28;20567;-73
2023/07/01 06:15:41;;;;;;;12.80;5.63;;;25.90;99.90;;;;;;5071404;28;20842;-73
2023/07/01 06:18:07;;;;;;;8.77;5.20;;;26.00;99.90;;;;;;5072299;28;20413;-74
2023/07/01 06:20:33;;;;;;;11.48;5.13;;;26.00;99.90;;;;;;5083842;28;20476;-73
2023/07/01 06:22:59;;;;;;;7.82;4.95;;;26.00;99.90;;;;;;5077629;28;20398;-73
2023/07/01 06:25:26;;;;;;;10.13;5.30;;;26.00;99.90;;;;;;5086504;28;20472;-72
2023/07/01 06:27:52;;;;;;;8.80;5.30;;;26.10;99.90;;;;;;5103562;27;20416;-72
2023/07/01 06:30:18;;;;;;;9.82;5.50;;;26.20;99.90;;;;;;5073813;28;20422;-72
2023/07/01 06:32:45;;;;;;;8.80;5.05;;;26.20;99.90;;;;;;5109528;27;20451;-73
2023/07/01 06:35:11;;;;;;;8.68;5.30;;;26.20;99.90;;;;;;5071140;28;20967;-73
2023/07/01 06:37:37;;;;;;;9.40;4.95;;;26.30;99.90;;;;;;5070029;28;20448;-73
2023/07/01 06:40:04;;;;;;;10.77;5.72;;;26.30;99.90;;;;;;5069412;28;20421;-74
2023/07/01 06:42:30;;;;;;;9.35;5.78;;;26.30;99.90;;;;;;5073324;28;20415;-73
2023/07/01 06:44:56;;;;;;;10.32;5.63;;;26.30;99.90;;;;;;5070453;28;20458;-73
2023/07/01 06:47:23;;;;;;;8.90;5.60;;;26.40;99.90;;;;;;5069605;28;20421;-72
2023/07/01 06:49:50;;;;;;;12.02;5.95;;;26.40;99.90;;;;;;5070441;28;20430;-72
2023/07/01 06:52:16;;;;;;;9.88;5.70;;;26.50;99.90;;;;;;5070167;28;21085;-72
2023/07/01 06:54:43;;;;;;;11.88;5.72;;;26.50;99.90;;;;;;5064667;28;21102;-72
2023/07/01 06:57:09;;;;;;;10.73;5.72;;;26.60;99.90;;;;;;5059638;28;20406;-72
2023/07/01 06:59:35;;;;;;;10.73;5.63;;;26.60;99.90;;;;;;5072920;28;20496;-72
2023/07/01 07:02:02;;;;;;;10.20;5.68;;;26.60;99.90;;;;;;5085000;28;20406;-72
2023/07/01 07:04:28;;;;;;;11.15;5.85;;;26.70;99.90;;;;;;5083964;28;20416;-72
2023/07/01 07:06:54;;;;;;;12.70;5.82;;;26.80;99.90;;;;;;5080264;28;20422;-72
2023/07/01 07:09:22;;;;;;;11.43;5.88;;;26.70;99.90;;;;;;5077170;28;20909;-72
2023/07/01 07:11:50;;;;;;;10.65;6.03;;;26.90;99.90;;;;;;5069339;28;20541;-72
2023/07/01 07:14:16;;;;;;;9.05;5.72;;;27.00;99.90;;;;;;5061433;28;20713;-72
2023/07/01 07:16:48;;;;;;;12.23;6.03;;;27.00;99.90;;;;;;5070292;28;20423;-72
2023/07/01 07:19:15;;;;;;;9.13;5.60;;;26.90;99.90;;;;;;5069967;28;20436;-72
2023/07/01 07:21:42;;;;;;;9.57;5.60;;;26.90;99.90;;;;;;5061746;28;20745;-72
2023/07/01 07:24:08;;;;;;;7.65;5.07;;;26.90;99.90;;;;;;5059284;28;20513;-72
2023/07/01 07:26:36;;;;;;;12.25;5.78;;;27.00;99.90;;;;;;5073222;28;20475;-72
2023/07/01 07:29:03;;;;;;;11.73;5.53;;;27.10;99.90;;;;;;5074357;28;20955;-72
2023/07/01 07:31:29;;;;;;;12.03;5.90;;;27.20;99.90;;;;;;5072132;28;20463;-72
2023/07/01 07:33:55;;;;;;;9.38;5.50;;;27.30;99.90;;;;;;5073093;28;20454;-72
2023/07/01 07:36:22;;;;;;;12.20;5.88;;;27.30;99.90;;;;;;5075212;28;20757;-72
2023/07/01 07:38:48;;;;;;;9.18;5.80;;;27.50;99.90;;;;;;5071672;28;20867;-72
2023/07/01 07:41:15;;;;;;;9.33;5.60;;;27.50;99.90;;;;;;5072547;28;20445;-72
2023/07/01 07:43:42;;;;;;;11.23;5.82;;;27.60;99.90;;;;;;5077370;28;20411;-72
2023/07/01 07:46:08;;;;;;;9.88;6.13;;;27.60;99.90;;;;;;5092972;28;20415;-72
2023/07/01 07:48:34;;;;;;;8.52;5.53;;;27.60;99.90;;;;;;5077333;28;20522;-72
2023/07/01 07:51:01;;;;;;;10.20;5.80;;;27.70;99.90;;;;;;5074625;28;20580;-72
2023/07/01 07:53:27;;;;;;;10.70;5.80;;;27.80;99.90;;;;;;5057332;28;20954;-73
2023/07/01 07:55:53;;;;;;;9.05;5.53;;;27.90;99.90;;;;;;5080371;28;20967;-72
2023/07/01 07:58:19;;;;;;;11.48;5.90;;;27.90;99.90;;;;;;5066564;28;20454;-72
2023/07/01 08:00:46;;;;;;;8.32;5.50;;;28.10;99.90;;;;;;5084173;28;20413;-72
2023/07/01 08:03:13;;;;;;;9.73;5.72;;;28.20;99.90;;;;;;5069601;28;20419;-72
2023/07/01 08:05:39;;;;;;;12.02;6.13;;;28.20;99.90;;;;;;5064436;28;20453;-72
2023/07/01 08:08:06;;;;;;;8.82;5.90;;;28.30;99.90;;;;;;5089704;27;20417;-72
2023/07/01 08:10:32;;;;;;;10.20;6.10;;;28.40;99.90;;;;;;5087384;28;20482;-72
2023/07/01 08:12:58;;;;;;;9.40;5.53;;;28.40;99.90;;;;;;5063951;28;20420;-72
2023/07/01 08:15:24;;;;;;;9.13;5.70;;;28.60;99.90;;;;;;5094481;27;20494;-72
2023/07/01 08:17:51;;;;;;;11.57;5.82;;;28.70;99.90;;;;;;5076444;28;20805;-72
2023/07/01 08:20:17;;;;;;;13.00;6.30;;;28.80;99.90;;;;;;5089654;27;20418;-72
2023/07/01 08:22:43;;;;;;;9.73;5.80;;;28.90;99.90;;;;;;5074690;28;20550;-72
2023/07/01 08:25:10;;;;;;;10.27;6.10;;;29.00;99.90;;;;;;5059902;28;20412;-72
2023/07/01 08:27:36;;;;;;;11.93;5.60;;;29.10;99.90;;;;;;5093755;28;20457;-72
2023/07/01 08:30:03;;;;;;;9.65;5.85;;;29.10;99.90;;;;;;5084696;27;20544;-72
2023/07/01 08:32:29;;;;;;;12.02;5.95;;;29.20;99.90;;;;;;5088355;28;20410;-72
2023/07/01 08:34:56;;;;;;;11.38;6.00;;;29.20;99.90;;;;;;5060647;28;20433;-72
2023/07/01 08:37:22;;;;;;;11.93;6.15;;;29.20;99.90;;;;;;5072435;28;20549;-72
2023/07/01 08:39:48;;;;;;;12.32;5.72;;;29.30;99.90;;;;;;5080686;28;20422;-72
2023/07/01 08:42:22;;;;;;;11.63;5.97;;;29.30;99.90;;;;;;5078211;28;20555;-72
2023/07/01 08:44:50;;;;;;;15.25;5.75;;;29.30;99.90;;;;;;5076122;28;20425;-72
2023/07/01 08:47:18;;;;;;;9.13;5.72;;;29.30;99.90;;;;;;5083601;28;20467;-72
2023/07/01 08:49:53;;;;;;;10.55;5.63;;;29.40;99.90;;;;;;5068061;28;20415;-72
2023/07/01 08:52:22;;;;;;;19.33;6.40;;;29.60;99.90;;;;;;5070211;28;20491;-72
2023/07/01 08:54:49;;;;;;;12.30;5.57;;;29.60;99.90;;;;;;5107407;27;20470;-73
2023/07/01 08:57:15;;;;;;;11.00;5.50;;;29.70;99.90;;;;;;5073137;28;20874;-72
2023/07/01 08:59:43;;;;;;;11.55;5.60;;;29.80;99.90;;;;;;5077868;28;20512;-72
2023/07/01 09:02:12;;;;;;;11.82;5.82;;;29.80;99.90;;;;;;5078951;28;20418;-72
2023/07/01 09:04:39;;;;;;;13.27;5.47;;;29.80;99.90;;;;;;5096086;28;20412;-72
2023/07/01 09:07:05;;;;;;;12.18;5.78;;;30.00;99.90;;;;;;5106006;27;20412;-72
2023/07/01 09:09:33;;;;;;;11.27;5.75;;;30.00;99.90;;;;;;5075632;28;20417;-72
2023/07/01 09:12:00;;;;;;;13.60;6.00;;;30.10;99.90;;;;;;5085352;28;20412;-72
2023/07/01 09:14:26;;;;;;;14.57;5.45;;;30.00;99.90;;;;;;5095924;27;20421;-72
2023/07/01 09:16:52;;;;;;;11.45;5.72;;;30.20;99.90;;;;;;5078861;28;20545;-73
2023/07/01 09:19:22;;;;;;;9.95;5.18;;;30.30;99.90;;;;;;5077779;28;20418;-73
2023/07/01 09:21:48;;;;;;;11.98;5.45;;;30.30;99.90;;;;;;5070723;28;21065;-72
2023/07/01 09:24:14;;;;;;;11.90;5.43;;;30.40;99.90;;;;;;5098931;27;20412;-72
2023/07/01 09:26:41;;;;;;;15.52;5.63;;;30.30;99.90;;;;;;5099851;28;20406;-72
2023/07/01 09:29:15;;;;;;;13.93;5.70;;;30.20;99.90;;;;;;5058190;28;20412;-72
2023/07/01 09:31:47;;;;;;;14.57;5.72;;;30.30;99.90;;;;;;5070826;28;20418;-73
2023/07/01 09:34:15;;;;;;;17.17;5.80;;;30.30;99.90;;;;;;5080862;28;20423;-72
2023/07/01 09:36:41;;;;;;;13.73;5.85;;;30.30;99.90;;;;;;5087986;28;20410;-72
2023/07/01 09:39:08;;;;;;;13.55;5.40;;;30.50;99.90;;;;;;5062916;28;20498;-73
2023/07/01 09:41:34;;;;;;;12.50;5.43;;;30.60;99.90;;;;;;5079005;28;20853;-72
2023/07/01 09:44:13;;;;;;;13.02;5.55;;;30.60;99.90;;;;;;5081491;28;20851;-73
2023/07/01 09:46:43;;;;;;;12.33;5.67;;;30.60;99.90;;;;;;5087408;28;20415;-72
2023/07/01 09:49:10;;;;;;;11.77;5.32;;;30.60;99.90;;;;;;5076584;28;20408;-73
2023/07/01 09:51:48;;;;;;;13.13;5.50;;;30.60;99.90;;;;;;5074006;28;20426;-72
2023/07/01 09:54:30;;;;;;;13.60;5.90;;;30.60;99.90;;;;;;5057964;28;20878;-72
2023/07/01 09:56:59;;;;;;;11.82;5.32;;;30.80;99.90;;;;;;5055138;28;20458;-72
2023/07/01 09:59:27;;;;;;;13.05;5.63;;;30.70;99.90;;;;;;5068817;28;20471;-72
2023/07/01 10:01:57;;;;;;;11.40;5.30;;;30.80;99.90;;;;;;5091324;27;20963;-73
2023/07/01 10:04:28;;;;;;;14.35;5.35;;;30.90;99.90;;;;;;5073185;28;20765;-72
2023/07/01 10:06:55;;;;;;;15.00;5.63;;;30.90;99.90;;;;;;5074939;28;20410;-73
2023/07/01 10:09:23;;;;;;;11.85;5.65;;;30.70;99.90;;;;;;5075457;28;20441;-73
2023/07/01 10:11:54;;;;;;;12.00;5.50;;;30.90;99.90;;;;;;5106291;27;20419;-72
2023/07/01 10:14:24;;;;;;;11.95;5.57;;;30.90;99.90;;;;;;5072665;28;20417;-73
2023/07/01 10:16:51;;;;;;;12.88;5.45;;;31.10;99.90;;;;;;5072818;28;20418;-73
2023/07/01 10:19:33;;;;;;;11.77;5.78;;;31.00;99.90;;;;;;5070284;28;20408;-72
2023/07/01 10:22:28;;;;;;;12.55;5.35;;;31.00;99.90;;;;;;5096590;28;20498;-73
2023/07/01 10:25:03;;;;;;;14.47;5.47;;;31.10;99.90;;;;;;5085777;28;20501;-73
2023/07/01 10:27:42;;;;;;;16.92;5.32;;;31.10;99.90;;;;;;5079632;28;20410;-73
2023/07/01 10:30:12;;;;;;;11.50;5.17;;;31.20;99.90;;;;;;5076885;28;20518;-73
2023/07/01 10:32:40;;;;;;;11.95;5.20;;;30.90;99.90;;;;;;5083696;28;20430;-73
2023/07/01 10:35:14;;;;;;;13.15;5.38;;;30.80;99.90;;;;;;5087099;28;20535;-73
2023/07/01 10:37:40;;;;;;;15.20;5.50;;;30.80;99.90;;;;;;5061205;28;20421;-73
2023/07/01 10:40:30;;;;;;;14.02;5.22;;;30.70;99.90;;;;;;5089742;28;20406;-73
2023/07/01 10:43:30;;;;;;;16.75;5.43;;;30.80;99.90;;;;;;5066099;28;20414;-73
2023/07/01 10:46:24;;;;;;;13.63;5.38;;;30.80;99.90;;;;;;5079405;28;20936;-73
2023/07/01 10:49:03;;;;;;;10.57;5.00;;;30.80;99.90;;;;;;5064953;28;20411;-73
2023/07/01 10:51:45;;;;;;;11.57;5.10;;;30.70;99.90;;;;;;5077036;28;20421;-73
2023/07/01 10:54:11;;;;;;;11.27;5.07;;;30.80;99.90;;;;;;5068482;28;20423;-73
2023/07/01 10:57:02;;;;;;;16.10;5.22;;;30.90;99.90;;;;;;5109477;28;20433;-73
2023/07/01 10:59:30;;;;;;;13.00;5.37;;;30.80;99.90;;;;;;5073895;28;20865;-72
2023/07/01 11:02:00;;;;;;;12.13;5.43;;;30.70;99.90;;;;;;5069928;28;20487;-73
2023/07/01 11:04:51;;;;;;;13.05;5.25;;;30.80;99.90;;;;;;5080070;28;20409;-73
2023/07/01 11:07:28;;;;;;;10.38;4.90;;;30.80;99.90;;;;;;5088322;28;20556;-72
2023/07/01 11:09:55;;;;;;;12.50;5.30;;;30.80;99.90;;;;;;5077853;28;20484;-73
2023/07/01 11:12:23;;;;;;;10.30;5.22;;;30.80;99.90;;;;;;5072648;28;20452;-73
2023/07/01 11:14:53;;;;;;;12.05;4.93;;;30.80;99.90;;;;;;5077079;28;20435;-73
2023/07/01 11:17:22;;;;;;;15.20;4.83;;;30.80;99.90;;;;;;5077935;28;20421;-73
2023/07/01 11:19:56;;;;;;;14.60;5.38;;;30.80;99.90;;;;;;5076676;28;20502;-73
2023/07/01 11:22:23;;;;;;;12.13;5.20;;;30.90;99.90;;;;;;5077128;28;20526;-73
2023/07/01 11:24:50;;;;;;;12.02;4.85;;;30.90;99.90;;;;;;5078615;28;20403;-73
2023/07/01 11:27:17;;;;;;;12.43;4.95;;;30.90;99.90;;;;;;5089998;28;20806;-73
2023/07/01 11:29:48;;;;;;;11.70;4.65;;;30.90;99.90;;;;;;5076412;28;20414;-72
2023/07/01 11:32:15;;;;;;;18.23;5.07;;;30.90;99.90;;;;;;5077019;28;20429;-73
2023/07/01 11:34:44;;;;;;;14.32;5.13;;;30.90;99.90;;;;;;5081560;28;20474;-73
2023/07/01 11:37:23;;;;;;;12.65;4.47;;;31.00;99.90;;;;;;5058771;28;20967;-73
2023/07/01 11:39:50;;;;;;;15.80;5.32;;;31.10;99.90;;;;;;5089970;28;20904;-73
2023/07/01 11:42:16;;;;;;;11.25;4.70;;;31.10;99.90;;;;;;5080183;28;20416;-73
2023/07/01 11:44:43;;;;;;;12.98;4.95;;;31.10;99.90;;;;;;5080567;28;20430;-73
2023/07/01 11:47:14;;;;;;;15.23;4.63;;;31.10;99.90;;;;;;5085079;28;21122;-73
2023/07/01 11:49:41;;;;;;;13.10;4.33;;;31.00;99.90;;;;;;5104506;27;20415;-73
2023/07/01 11:52:07;;;;;;;14.68;4.85;;;31.00;99.90;;;;;;5093418;28;20416;-73
2023/07/01 11:54:39;;;;;;;12.35;4.53;;;30.90;99.90;;;;;;5084611;28;20515;-73
2023/07/01 11:57:14;;;;;;;19.67;5.22;;;30.90;99.90;;;;;;5081680;28;20524;-72
2023/07/01 11:59:45;;;;;;;12.73;4.53;;;30.80;99.90;;;;;;5109851;27;20440;-73
2023/07/01 12:02:13;;;;;;;12.35;4.38;;;30.80;99.90;;;;;;5071966;28;20524;-73
2023/07/01 12:04:39;;;;;;;14.87;4.43;;;30.80;99.90;;;;;;5079080;28;20434;-73
2023/07/01 12:07:13;;;;;;;14.82;4.97;;;30.70;99.90;;;;;;5078918;28;20503;-73
2023/07/01 12:09:44;;;;;;;15.77;5.05;;;30.70;99.90;;;;;;5081688;28;20406;-72
2023/07/01 12:12:33;;;;;;;15.23;4.43;;;30.80;99.90;;;;;;5099678;28;20443;-73
2023/07/01 12:15:11;;;;;;;14.57;4.75;;;30.80;99.90;;;;;;5080490;28;20845;-73
2023/07/01 12:17:38;;;;;;;11.13;4.43;;;30.80;99.90;;;;;;5071009;28;20416;-73
2023/07/01 12:20:08;;;;;;;13.40;5.00;;;30.80;99.90;;;;;;5064485;28;20419;-73
2023/07/01 12:22:35;;;;;;;12.45;4.65;;;30.80;99.90;;;;;;5071423;28;20402;-73
2023/07/01 12:25:02;;;;;;;13.55;4.38;;;30.90;99.90;;;;;;5087228;28;20446;-73
2023/07/01 12:27:28;;;;;;;12.88;4.88;;;31.00;99.90;;;;;;5064799;28;20449;-73
2023/07/01 12:29:56;;;;;;;15.13;4.70;;;30.90;99.90;;;;;;5079003;28;20413;-73
2023/07/01 12:32:23;;;;;;;12.90;4.40;;;30.80;99.90;;;;;;5076330;28;20411;-73
2023/07/01 12:34:49;;;;;;;16.77;4.68;;;30.80;99.90;;;;;;5075247;28;20795;-73
2023/07/01 12:37:15;;;;;;;10.50;4.20;;;30.80;99.90;;;;;;5084987;28;20405;-73
2023/07/01 12:39:44;;;;;;;11.45;4.40;;;30.70;99.90;;;;;;5082784;28;20579;-73
2023/07/01 12:42:12;;;;;;;11.43;4.22;;;30.50;99.90;;;;;;5078674;28;20442;-73
2023/07/01 12:44:43;;;;;;;14.20;4.33;;;30.50;99.90;;;;;;5077335;28;20414;-73
2023/07/01 12:47:09;;;;;;;15.10;4.70;;;30.60;99.90;;;;;;5082322;28;20418;-73
2023/07/01 12:49:37;;;;;;;10.27;4.10;;;30.50;99.90;;;;;;5079321;28;20406;-73